Time;durP1;ratioP1;P1;durP2;ratioP2;P2;SDS_P1;SDS_P2;PMS_P1;PMS_P2;Temp;Humidity;BMP_temperature;BMP_pressure;BME280_temperature;BME280_humidity;BME280_pressure;Samples;Min_cycle;Max_cycle;Signal;HPM_P1;HPM_P2
2022/11/22 00:02:23;;;;;;;1.93;1.83;;;;;;;5.77;100.00;94002.41;5051888;28;20682;-63
2022/11/22 00:04:49;;;;;;;2.70;1.80;;;;;;;5.62;100.00;94019.50;5051412;28;20213;-62
2022/11/22 00:07:14;;;;;;;2.17;2.07;;;;;;;5.65;100.00;94026.03;5051514;28;20228;-64
2022/11/22 00:09:40;;;;;;;2.03;1.80;;;;;;;5.63;100.00;94035.44;5051284;28;20284;-64
2022/11/22 00:12:05;;;;;;;2.27;2.07;;;;;;;5.68;100.00;94025.78;5051757;28;20197;-59
2022/11/22 00:14:31;;;;;;;2.33;2.13;;;;;;;5.68;100.00;94021.56;5051374;28;20201;-64
2022/11/22 00:16:56;;;;;;;2.57;2.37;;;;;;;6.02;100.00;94026.59;5051272;28;20186;-58
2022/11/22 00:19:21;;;;;;;1.80;1.70;;;;;;;5.92;100.00;94031.53;5051243;28;20211;-62
2022/11/22 00:21:47;;;;;;;2.17;1.97;;;;;;;5.84;100.00;93996.81;5051358;28;20239;-63
2022/11/22 00:24:12;;;;;;;2.40;2.20;;;;;;;5.83;100.00;94022.97;5051443;28;20587;-61
2022/11/22 00:26:38;;;;;;;1.90;1.80;;;;;;;5.76;100.00;94013.41;5051450;28;20198;-64
2022/11/22 00:29:03;;;;;;;3.03;2.10;;;;;;;5.69;100.00;94018.13;5051216;28;20244;-59
2022/11/22 00:31:29;;;;;;;1.83;1.73;;;;;;;5.75;100.00;94034.50;5033541;28;20279;-62
2022/11/22 00:33:54;;;;;;;2.57;2.37;;;;;;;5.74;100.00;94020.28;5051056;28;20196;-64
2022/11/22 00:36:20;;;;;;;2.27;2.07;;;;;;;5.54;100.00;94008.38;5051502;28;20196;-63
2022/11/22 00:38:45;;;;;;;2.53;2.23;;;;;;;5.78;100.00;94001.47;5050918;28;20220;-64
2022/11/22 00:41:11;;;;;;;2.20;2.00;;;;;;;6.00;100.00;94030.97;5051039;28;20670;-63
2022/11/22 00:43:36;;;;;;;2.57;2.37;;;;;;;5.89;100.00;94051.94;5033261;28;20198;-62
2022/11/22 00:46:02;;;;;;;2.03;1.93;;;;;;;5.90;100.00;94058.56;5050793;28;20572;-62
2022/11/22 00:48:27;;;;;;;2.23;2.00;;;;;;;5.80;100.00;94045.84;5050987;28;20735;-59
2022/11/22 00:50:54;;;;;;;3.00;1.90;;;;;;;5.55;100.00;94032.69;5050092;28;20247;-60
2022/11/22 00:53:20;;;;;;;2.10;1.93;;;;;;;5.62;100.00;94023.75;5032930;28;20345;-63
2022/11/22 00:55:46;;;;;;;2.10;1.93;;;;;;;5.30;100.00;94007.72;5032875;28;20255;-62
2022/11/22 00:58:11;;;;;;;2.40;2.17;;;;;;;5.36;100.00;93987.09;5050935;28;20228;-63
2022/11/22 01:00:37;;;;;;;2.40;2.20;;;;;;;5.16;100.00;93970.16;5032664;28;20224;-64
2022/11/22 01:03:02;;;;;;;2.43;2.23;;;;;;;5.36;100.00;93982.88;5050859;28;20575;-63
2022/11/22 01:05:27;;;;;;;2.23;2.10;;;;;;;5.29;100.00;93983.44;5050541;28;20216;-62
2022/11/22 01:07:54;;;;;;;2.87;2.10;;;;;;;5.23;100.00;93968.78;5032895;28;20204;-59
2022/11/22 01:10:20;;;;;;;2.40;2.20;;;;;;;5.44;100.00;93957.09;5050474;28;20235;-61
2022/11/22 01:12:45;;;;;;;2.97;2.67;;;;;;;5.50;100.00;93957.44;5033023;28;20646;-60
2022/11/22 01:15:11;;;;;;;2.43;2.23;;;;;;;5.42;100.00;93979.88;5032756;28;20212;-63
2022/11/22 01:17:37;;;;;;;2.33;2.13;;;;;;;5.53;100.00;93987.44;5050897;28;20719;-64
2022/11/22 01:20:03;;;;;;;2.67;2.47;;;;;;;5.67;100.00;94009.09;5050516;28;20681;-63
2022/11/22 01:22:29;;;;;;;2.60;2.40;;;;;;;6.00;100.00;94030.97;5050480;28;20573;-62
2022/11/22 01:24:54;;;;;;;2.43;2.23;;;;;;;6.03;100.00;94035.75;5050526;28;20208;-62
2022/11/22 01:27:20;;;;;;;2.93;2.63;;;;;;;5.99;100.00;94022.56;5032481;28;20189;-59
2022/11/22 01:29:45;;;;;;;3.10;2.80;;;;;;;5.82;100.00;93988.53;5032441;28;20544;-61
2022/11/22 01:32:11;;;;;;;3.77;3.23;;;;;;;5.80;100.00;93999.66;5032628;28;20665;-61
2022/11/22 01:34:36;;;;;;;3.07;2.77;;;;;;;5.78;100.00;93971.22;5050383;28;20208;-59
2022/11/22 01:37:02;;;;;;;2.77;2.37;;;;;;;5.81;100.00;93991.19;5050591;28;20258;-64
2022/11/22 01:39:28;;;;;;;3.10;2.80;;;;;;;5.76;100.00;94028.53;5050132;28;20287;-63
2022/11/22 01:41:53;;;;;;;2.43;2.23;;;;;;;5.71;100.00;93985.25;5032652;28;20193;-59
2022/11/22 01:44:24;;;;;;;3.47;2.90;;;;;;;5.63;100.00;93969.91;5050300;28;20638;-62
2022/11/22 01:46:54;;;;;;;3.03;2.73;;;;;;;5.36;100.00;93959.38;5050173;28;20622;-63
2022/11/22 01:49:25;;;;;;;3.60;3.00;;;;;;;5.25;100.00;93939.25;5050725;28;20212;-64
2022/11/22 01:51:54;;;;;;;3.97;3.23;;;;;;;5.44;100.00;93962.13;5050217;28;20207;-58
2022/11/22 01:54:24;;;;;;;3.53;3.13;;;;;;;5.61;100.00;93970.03;5049841;28;20212;-62
2022/11/22 01:56:55;;;;;;;3.00;2.80;;;;;;;5.46;100.00;93995.56;5032325;28;20216;-61
2022/11/22 01:59:25;;;;;;;4.33;3.10;;;;;;;5.51;100.00;93978.41;5050004;28;20213;-59
2022/11/22 02:01:52;;;;;;;2.97;2.70;;;;;;;5.53;100.00;93963.97;5050423;28;20656;-63
2022/11/22 02:04:19;;;;;;;3.23;2.90;;;;;;;5.69;100.00;93982.03;5052259;28;20212;-59
2022/11/22 02:07:09;;;;;;;3.80;3.30;;;;;;;5.68;100.00;93996.34;5053810;28;20231;-59
2022/11/22 02:09:36;;;;;;;3.63;3.13;;;;;;;5.58;100.00;93997.16;5053549;28;20218;-63
2022/11/22 02:12:05;;;;;;;3.50;3.20;;;;;;;5.30;100.00;93955.63;5053402;28;20200;-59
2022/11/22 02:14:32;;;;;;;3.60;3.03;;;;;;;5.46;100.00;93990.53;5053308;28;20245;-59
2022/11/22 02:16:58;;;;;;;3.80;3.00;;;;;;;5.45;100.00;94009.91;5035534;28;20257;-64
2022/11/22 02:19:42;;;;;;;3.53;3.10;;;;;;;5.12;100.00;93967.06;5053340;28;20213;-63
2022/11/22 02:22:32;;;;;;;4.00;3.10;;;;;;;5.20;100.00;93974.06;5035396;28;20202;-62
2022/11/22 02:25:35;;;;;;;3.43;3.13;;;;;;;5.25;100.00;93974.53;5070151;22;20709;-63
2022/11/22 02:28:00;;;;;;;4.40;3.27;;;;;;;5.36;100.00;93964.41;5073169;28;20206;-62
2022/11/22 02:30:26;;;;;;;5.23;3.57;;;;;;;5.47;100.00;93964.41;5055024;28;20211;-62
2022/11/22 02:32:51;;;;;;;3.50;3.20;;;;;;;5.50;100.00;93990.19;5054975;28;20613;-63
2022/11/22 02:35:25;;;;;;;3.17;2.87;;;;;;;5.44;100.00;93957.09;5072979;28;20205;-63
2022/11/22 02:38:01;;;;;;;3.03;2.73;;;;;;;5.35;100.00;93943.50;5072816;28;20198;-59
2022/11/22 02:40:31;;;;;;;3.87;3.13;;;;;;;5.35;100.00;93950.22;5072963;28;20211;-62
2022/11/22 02:43:31;;;;;;;4.07;3.00;;;;;;;5.46;100.00;93955.25;5072918;28;20212;-61
2022/11/22 02:46:09;;;;;;;3.70;3.23;;;;;;;5.52;100.00;93992.59;5072947;28;20213;-63
2022/11/22 02:48:41;;;;;;;3.87;3.07;;;;;;;5.38;100.00;93976.00;5072818;28;20203;-64
2022/11/22 02:51:07;;;;;;;4.00;3.30;;;;;;;5.33;100.00;93955.41;5054879;28;20231;-65
2022/11/22 02:53:33;;;;;;;4.53;3.03;;;;;;;5.38;100.00;93942.44;5054716;28;20195;-63
2022/11/22 02:55:58;;;;;;;3.70;3.10;;;;;;;5.57;100.00;93963.63;5072686;28;20217;-63
2022/11/22 02:58:24;;;;;;;6.97;5.33;;;;;;;5.27;100.00;93930.66;5072763;28;20724;-58
2022/11/22 03:00:49;;;;;;;4.57;3.20;;;;;;;5.42;100.00;93928.69;5054499;28;20585;-62
2022/11/22 03:03:15;;;;;;;3.77;3.13;;;;;;;5.55;100.00;93957.88;5072513;28;20188;-64
2022/11/22 03:05:40;;;;;;;3.87;3.40;;;;;;;5.40;100.00;93975.88;5072531;28;20205;-61
2022/11/22 03:08:05;;;;;;;3.40;3.10;;;;;;;5.04;100.00;93939.94;5072634;28;20187;-62
2022/11/22 03:10:31;;;;;;;3.70;3.20;;;;;;;4.87;100.00;93917.72;5072494;28;20214;-59
2022/11/22 03:12:57;;;;;;;5.03;3.47;;;;;;;5.02;100.00;93910.75;5054454;28;20278;-62
2022/11/22 03:15:23;;;;;;;4.47;2.97;;;;;;;5.15;100.00;93931.59;5072011;28;20693;-64
2022/11/22 03:17:48;;;;;;;3.40;3.00;;;;;;;5.13;100.00;93940.94;5072206;28;20222;-60
2022/11/22 03:20:14;;;;;;;3.30;3.00;;;;;;;5.10;100.00;93938.69;5072326;28;20219;-62
2022/11/22 03:22:40;;;;;;;4.00;3.17;;;;;;;5.10;100.00;93931.94;5072414;28;20297;-59
2022/11/22 03:25:05;;;;;;;5.00;3.50;;;;;;;4.87;100.00;93912.69;5054380;28;20303;-63
2022/11/22 03:27:31;;;;;;;4.27;3.47;;;;;;;4.95;100.00;93900.34;5072244;28;20241;-62
2022/11/22 03:30:02;;;;;;;4.33;3.33;;;;;;;5.01;100.00;93914.97;5072518;28;20226;-62
2022/11/22 03:32:28;;;;;;;3.27;2.97;;;;;;;4.89;100.00;93908.34;5072229;28;20590;-59
2022/11/22 03:34:53;;;;;;;4.00;3.57;;;;;;;4.94;100.00;93910.53;5054188;28;20219;-58
2022/11/22 03:37:19;;;;;;;4.03;3.43;;;;;;;5.03;100.00;93927.44;5072093;28;20194;-58
2022/11/22 03:39:44;;;;;;;4.27;3.60;;;;;;;5.06;100.00;93912.94;5072261;28;20263;-59
2022/11/22 03:42:10;;;;;;;3.63;3.30;;;;;;;5.34;100.00;93930.97;5072060;28;20192;-62
2022/11/22 03:44:35;;;;;;;4.97;3.90;;;;;;;5.19;100.00;93917.03;5072127;28;20231;-60
2022/11/22 03:47:01;;;;;;;4.10;3.70;;;;;;;5.07;100.00;93906.16;5054126;28;20257;-64
2022/11/22 03:49:26;;;;;;;3.93;3.53;;;;;;;5.07;100.00;93911.19;5071055;28;20212;-61
2022/11/22 03:51:52;;;;;;;4.17;3.37;;;;;;;5.10;100.00;93918.53;5072107;28;20178;-62
2022/11/22 03:54:17;;;;;;;6.73;3.20;;;;;;;5.15;100.00;93934.13;5054094;28;20220;-59
2022/11/22 03:56:42;;;;;;;4.10;3.70;;;;;;;5.19;100.00;93942.22;5071917;28;20613;-63
2022/11/22 03:59:08;;;;;;;3.67;3.23;;;;;;;5.42;100.00;93994.19;5071677;28;20231;-63
2022/11/22 04:01:34;;;;;;;6.20;3.73;;;;;;;5.24;100.00;93973.72;5071694;28;20662;-63
2022/11/22 04:03:59;;;;;;;3.37;3.00;;;;;;;5.27;100.00;93950.81;5071689;28;20211;-62
2022/11/22 04:06:24;;;;;;;4.70;3.77;;;;;;;5.25;100.00;93985.41;5053872;28;20195;-62
2022/11/22 04:08:50;;;;;;;3.93;3.03;;;;;;;5.15;100.00;93935.81;5072070;28;20198;-60
2022/11/22 04:11:16;;;;;;;4.43;3.60;;;;;;;5.24;100.00;93948.53;5071784;28;20725;-62
2022/11/22 04:16:25;;;;;;;4.23;3.50;;;;;;;5.34;100.00;93988.94;5072012;28;20191;-62
2022/11/22 04:18:51;;;;;;;4.70;3.80;;;;;;;5.36;100.00;94020.66;5071389;28;20222;-63
2022/11/22 04:21:35;;;;;;;4.20;3.40;;;;;;;5.24;100.00;93993.06;5053450;28;20206;-59
2022/11/22 04:26:53;;;;;;;4.07;3.37;;;;;;;5.04;100.00;93967.66;5071079;28;20219;-59
2022/11/22 04:29:19;;;;;;;5.27;4.27;;;;;;;5.13;100.00;93966.13;5071335;28;20219;-61
2022/11/22 04:34:29;;;;;;;7.43;3.33;;;;;;;5.18;100.00;93998.56;5071875;28;20223;-59
2022/11/22 04:36:55;;;;;;;5.47;4.37;;;;;;;5.18;100.00;94006.91;5053142;28;20188;-62
2022/11/22 04:39:20;;;;;;;4.73;3.97;;;;;;;5.15;100.00;93991.25;5071211;28;20228;-62
2022/11/22 04:41:46;;;;;;;7.43;3.57;;;;;;;5.16;100.00;93972.69;5071239;28;20191;-64
2022/11/22 04:46:55;;;;;;;6.73;4.57;;;;;;;4.97;100.00;93993.38;5071437;28;20201;-63
2022/11/22 04:49:21;;;;;;;6.17;3.90;;;;;;;4.89;100.00;93993.94;5070746;28;20212;-62
2022/11/22 04:54:30;;;;;;;5.87;4.20;;;;;;;4.83;100.00;93986.84;5071248;28;20650;-60
2022/11/22 04:56:55;;;;;;;4.50;4.07;;;;;;;4.75;100.00;93971.50;5070918;28;20192;-65
2022/11/22 04:59:20;;;;;;;5.03;4.33;;;;;;;4.74;100.00;93959.03;5071005;28;20571;-59
2022/11/22 05:01:46;;;;;;;4.70;3.90;;;;;;;4.87;100.00;93998.28;5070717;28;20778;-63
2022/11/22 05:04:11;;;;;;;4.07;3.47;;;;;;;4.92;100.00;93992.94;5070569;28;20218;-59
2022/11/22 05:06:37;;;;;;;5.63;4.03;;;;;;;4.95;100.00;94000.25;5070957;28;20645;-62
2022/11/22 05:09:03;;;;;;;4.63;4.03;;;;;;;4.87;100.00;94003.34;5070846;28;20213;-63
2022/11/22 05:11:28;;;;;;;5.17;3.90;;;;;;;4.79;100.00;93970.38;5070737;28;20605;-64
2022/11/22 05:13:53;;;;;;;6.10;4.20;;;;;;;4.92;100.00;93985.38;5070532;28;20673;-65
2022/11/22 05:16:19;;;;;;;5.73;4.30;;;;;;;4.84;100.00;93993.50;5070656;28;20435;-64
2022/11/22 05:18:57;;;;;;;7.60;4.77;;;;;;;4.78;100.00;93956.19;5052531;28;20277;-63
2022/11/22 05:21:24;;;;;;;8.30;5.10;;;;;;;5.81;100.00;93933.19;5070455;28;20187;-61
2022/11/22 05:23:53;;;;;;;6.10;4.43;;;;;;;6.47;100.00;93967.47;5070639;28;20196;-65
2022/11/22 05:26:27;;;;;;;6.50;4.03;;;;;;;7.82;100.00;93962.88;5052725;28;20207;-62
2022/11/22 05:28:53;;;;;;;5.83;4.90;;;;;;;7.72;100.00;93953.66;5070703;28;20296;-64
2022/11/22 05:31:24;;;;;;;6.77;4.47;;;;;;;7.23;100.00;93972.94;5070371;28;20185;-62
2022/11/22 05:33:54;;;;;;;5.37;4.20;;;;;;;6.64;100.00;94012.38;5036210;28;20199;-65
2022/11/22 05:36:21;;;;;;;4.80;4.17;;;;;;;6.37;100.00;94015.34;5052548;28;20209;-65
2022/11/22 05:38:46;;;;;;;5.17;4.43;;;;;;;6.27;100.00;94047.28;5055021;28;20310;-65
2022/11/22 05:41:13;;;;;;;4.90;4.40;;;;;;;6.28;100.00;94075.84;5074114;28;20670;-59
2022/11/22 05:43:39;;;;;;;7.73;3.97;;;;;;;6.05;100.00;94049.03;5074352;28;20185;-65
2022/11/22 05:46:18;;;;;;;5.17;4.13;;;;;;;5.90;100.00;94063.63;5074056;28;20188;-65
2022/11/22 05:48:45;;;;;;;4.40;4.00;;;;;;;5.86;100.00;94042.88;5074123;28;20195;-66
2022/11/22 05:51:14;;;;;;;4.20;3.80;;;;;;;5.90;100.00;94056.88;5073851;28;20198;-64
2022/11/22 05:53:41;;;;;;;4.93;3.87;;;;;;;5.83;100.00;94038.09;5074065;28;20410;-66
2022/11/22 05:56:12;;;;;;;4.60;4.10;;;;;;;6.13;100.00;94074.50;5074141;28;20547;-66
2022/11/22 05:58:37;;;;;;;8.57;4.80;;;;;;;5.92;100.00;94066.84;5074574;28;20295;-60
2022/11/22 06:01:05;;;;;;;10.00;6.40;;;;;;;5.87;100.00;93951.19;5055751;28;20308;-66
2022/11/22 06:03:31;;;;;;;8.00;5.57;;;;;;;5.87;100.00;93989.03;5073809;28;20566;-60
2022/11/22 06:05:57;;;;;;;8.20;5.83;;;;;;;5.84;100.00;94036.34;5073746;28;20217;-61
2022/11/22 06:08:22;;;;;;;9.17;7.23;;;;;;;5.86;100.00;94049.66;5073410;28;20188;-60
2022/11/22 06:10:48;;;;;;;11.80;7.23;;;;;;;5.68;100.00;94035.88;5073458;28;20207;-66
2022/11/22 06:13:13;;;;;;;9.43;7.03;;;;;;;5.62;100.00;94037.16;5073400;28;20187;-60
2022/11/22 06:15:39;;;;;;;8.97;6.87;;;;;;;5.74;100.00;94046.31;5073515;28;20756;-59
2022/11/22 06:18:04;;;;;;;6.40;4.83;;;;;;;5.43;100.00;94019.31;5055314;28;20212;-60
2022/11/22 06:20:29;;;;;;;6.00;4.83;;;;;;;5.35;100.00;94045.97;5055218;28;20715;-60
2022/11/22 06:22:58;;;;;;;5.77;4.40;;;;;;;5.22;100.00;94070.47;5073235;28;20191;-64
2022/11/22 06:25:23;;;;;;;6.77;3.43;;;;;;;5.22;100.00;94007.47;5073192;28;20692;-60
2022/11/22 06:27:48;;;;;;;4.83;3.97;;;;;;;5.13;100.00;94004.72;5073310;28;20187;-60
2022/11/22 06:30:14;;;;;;;7.40;4.33;;;;;;;5.13;100.00;94001.41;5073581;28;20206;-64
2022/11/22 06:32:40;;;;;;;6.33;5.20;;;;;;;5.08;100.00;93993.41;5073247;28;20286;-65
2022/11/22 06:35:06;;;;;;;6.20;5.07;;;;;;;5.33;100.00;94020.09;5073581;28;20212;-60
2022/11/22 06:37:31;;;;;;;6.17;5.03;;;;;;;5.37;100.00;94016.44;5073292;28;20187;-63
2022/11/22 06:39:56;;;;;;;8.97;6.17;;;;;;;5.45;100.00;94020.00;5073113;28;20310;-60
2022/11/22 06:42:22;;;;;;;8.37;7.27;;;;;;;5.41;100.00;94007.72;5073201;28;20233;-66
2022/11/22 06:44:47;;;;;;;9.30;7.13;;;;;;;5.43;100.00;94003.38;5073146;28;20218;-63
2022/11/22 06:47:13;;;;;;;8.77;6.40;;;;;;;5.64;100.00;94026.94;5073156;28;20230;-65
2022/11/22 06:49:38;;;;;;;8.83;7.30;;;;;;;5.63;100.00;94018.59;5054590;28;20275;-64
2022/11/22 06:52:04;;;;;;;10.27;7.00;;;;;;;5.50;100.00;94037.25;5054977;28;20279;-65
2022/11/22 06:54:29;;;;;;;7.93;6.37;;;;;;;5.49;100.00;94006.25;5073155;28;20210;-66
2022/11/22 06:56:54;;;;;;;9.83;7.20;;;;;;;5.55;100.00;94000.75;5073020;28;20249;-64
2022/11/22 06:59:20;;;;;;;11.17;6.97;;;;;;;5.70;100.00;94031.53;5072849;28;20306;-66
2022/11/22 07:01:45;;;;;;;10.67;7.03;;;;;;;5.78;100.00;94039.31;5073004;28;20195;-66
2022/11/22 07:04:11;;;;;;;8.63;6.80;;;;;;;5.73;100.00;94074.16;5072713;28;20298;-60
2022/11/22 07:06:37;;;;;;;12.93;8.37;;;;;;;5.75;100.00;94022.72;5073006;28;20260;-66
2022/11/22 07:09:10;;;;;;;8.27;6.40;;;;;;;5.67;100.00;94014.13;5054537;28;20693;-60
2022/11/22 07:11:36;;;;;;;9.47;7.07;;;;;;;5.71;100.00;94036.47;5072869;28;20181;-65
2022/11/22 07:14:04;;;;;;;9.97;7.60;;;;;;;5.57;100.00;94025.81;5073056;28;20204;-60
2022/11/22 07:16:29;;;;;;;10.00;6.90;;;;;;;5.74;100.00;94032.91;5072630;28;20596;-64
2022/11/22 07:18:55;;;;;;;12.53;7.27;;;;;;;5.72;100.00;94004.47;5054610;28;20220;-65
2022/11/22 07:21:22;;;;;;;9.00;6.77;;;;;;;5.78;100.00;94019.94;5072563;28;20182;-64
2022/11/22 07:23:50;;;;;;;9.80;6.87;;;;;;;5.82;100.00;94020.50;5054467;28;20199;-66
2022/11/22 07:26:17;;;;;;;10.03;6.43;;;;;;;5.77;100.00;94023.41;5072375;28;20183;-63
2022/11/22 07:28:43;;;;;;;9.37;6.53;;;;;;;6.00;100.00;94041.81;5072381;28;20192;-61
2022/11/22 07:31:10;;;;;;;9.77;6.83;;;;;;;5.96;100.00;94039.69;5054410;28;20188;-65
2022/11/22 07:33:36;;;;;;;9.83;6.97;;;;;;;5.87;100.00;94021.00;5072511;28;20185;-63
2022/11/22 07:36:07;;;;;;;9.73;6.80;;;;;;;5.96;100.00;94064.91;5072302;28;20337;-63
2022/11/22 07:38:33;;;;;;;11.47;8.07;;;;;;;5.85;100.00;94016.09;5054180;28;20657;-63
2022/11/22 07:40:59;;;;;;;9.83;6.77;;;;;;;5.89;100.00;93988.91;5072110;28;20207;-64
2022/11/22 07:43:25;;;;;;;10.90;7.20;;;;;;;5.94;100.00;93994.38;5072407;28;20204;-63
2022/11/22 07:45:50;;;;;;;9.43;7.37;;;;;;;6.12;100.00;94014.88;5072058;28;20602;-65
2022/11/22 07:48:16;;;;;;;37.70;10.60;;;;;;;6.43;100.00;94019.91;5072034;28;20256;-63
2022/11/22 07:50:41;;;;;;;12.47;7.30;;;;;;;6.33;100.00;94003.91;5071897;28;20275;-63
2022/11/22 07:53:08;;;;;;;15.57;7.23;;;;;;;6.58;100.00;94017.91;5072085;28;20568;-63
2022/11/22 07:55:34;;;;;;;13.80;8.40;;;;;;;6.79;100.00;94032.16;5071992;28;20630;-65
2022/11/22 07:58:00;;;;;;;11.47;8.47;;;;;;;6.77;100.00;94044.09;5071702;28;20220;-66
2022/11/22 08:00:26;;;;;;;13.67;7.33;;;;;;;6.74;100.00;94062.03;5053317;28;20765;-66
2022/11/22 08:02:51;;;;;;;11.40;7.23;;;;;;;6.73;100.00;94047.78;5071159;28;20196;-63
2022/11/22 08:05:17;;;;;;;14.10;7.00;;;;;;;7.05;100.00;94026.72;5071768;28;20219;-63
2022/11/22 08:07:47;;;;;;;11.13;7.40;;;;;;;7.27;100.00;94040.00;5053898;28;20207;-59
2022/11/22 08:10:13;;;;;;;39.73;8.73;;;;;;;7.32;100.00;94059.84;5071770;28;20765;-65
2022/11/22 08:12:38;;;;;;;18.50;7.03;;;;;;;7.61;100.00;94064.13;5071656;28;20189;-65
2022/11/22 08:15:06;;;;;;;7.27;5.70;;;;;;;8.03;100.00;94102.78;5071432;28;20208;-65
2022/11/22 08:17:31;;;;;;;9.00;6.53;;;;;;;8.45;100.00;94128.78;5071491;28;20197;-61
2022/11/22 08:19:56;;;;;;;9.67;7.23;;;;;;;8.51;100.00;94115.59;5071891;28;20212;-65
2022/11/22 08:22:22;;;;;;;8.90;6.97;;;;;;;8.70;100.00;94142.69;5071439;28;20275;-64
2022/11/22 08:24:47;;;;;;;13.73;7.67;;;;;;;8.97;100.00;94118.28;5071654;28;20220;-60
2022/11/22 08:27:13;;;;;;;13.43;7.13;;;;;;;9.09;100.00;94118.97;5071590;28;20268;-59
2022/11/22 08:29:38;;;;;;;11.43;6.53;;;;;;;9.27;100.00;94117.38;5053522;28;20217;-65
2022/11/22 08:32:03;;;;;;;23.17;7.53;;;;;;;9.09;100.00;94114.69;5078740;22;20234;-64
2022/11/22 08:34:29;;;;;;;10.43;6.60;;;;;;;8.91;100.00;94085.06;5071522;28;20205;-65
2022/11/22 08:36:55;;;;;;;9.47;6.87;;;;;;;8.30;100.00;94095.41;5071220;28;20212;-64
2022/11/22 08:39:21;;;;;;;7.77;6.63;;;;;;;8.06;100.00;94041.75;5071227;28;20227;-65
2022/11/22 08:41:46;;;;;;;15.43;7.20;;;;;;;7.98;100.00;94018.06;5071267;28;20730;-64
2022/11/22 08:44:12;;;;;;;9.60;7.27;;;;;;;7.93;100.00;93989.78;5071245;28;20295;-60
2022/11/22 08:46:37;;;;;;;7.93;6.70;;;;;;;7.84;100.00;93998.97;5071266;28;20189;-65
2022/11/22 08:49:05;;;;;;;11.87;7.17;;;;;;;7.83;100.00;93992.31;5071232;28;20212;-65
2022/11/22 08:51:31;;;;;;;9.80;6.73;;;;;;;7.87;100.00;93972.59;5071267;28;20577;-64
2022/11/22 08:53:57;;;;;;;9.73;7.10;;;;;;;7.84;100.00;93972.88;5071081;28;20232;-66
2022/11/22 08:56:22;;;;;;;14.37;7.20;;;;;;;7.80;100.00;93969.78;5071189;28;20212;-66
2022/11/22 08:58:47;;;;;;;14.60;7.33;;;;;;;7.84;100.00;93995.66;5069692;28;20220;-62
2022/11/22 09:01:15;;;;;;;13.37;6.93;;;;;;;7.56;100.00;93962.56;5053034;28;20529;-65
2022/11/22 09:03:41;;;;;;;14.77;8.97;;;;;;;7.58;100.00;93957.34;5070760;28;20218;-62
2022/11/22 09:06:09;;;;;;;22.60;7.27;;;;;;;7.23;100.00;93945.13;5071323;28;20533;-66
2022/11/22 09:08:35;;;;;;;28.50;9.10;;;;;;;7.39;100.00;93955.56;5070953;28;20662;-64
2022/11/22 09:11:03;;;;;;;16.23;7.87;;;;;;;7.48;100.00;93942.16;5070693;28;20207;-65
2022/11/22 09:13:28;;;;;;;13.37;7.20;;;;;;;7.45;100.00;93939.09;5075798;28;20576;-59
2022/11/22 09:15:54;;;;;;;11.60;7.37;;;;;;;7.57;100.00;93948.19;5077379;28;20212;-59
2022/11/22 09:18:20;;;;;;;12.80;8.20;;;;;;;7.43;100.00;93941.75;5077458;28;20247;-65
2022/11/22 09:20:45;;;;;;;10.90;7.43;;;;;;;7.26;100.00;93918.81;5077352;28;20799;-60
2022/11/22 09:23:11;;;;;;;10.37;6.90;;;;;;;7.24;100.00;93925.72;5076258;28;20191;-59
2022/11/22 09:25:36;;;;;;;9.97;7.30;;;;;;;7.37;100.00;93921.25;5077314;28;20209;-66
2022/11/22 09:28:02;;;;;;;10.00;7.20;;;;;;;7.49;100.00;93969.03;5077439;28;20192;-62
2022/11/22 09:30:28;;;;;;;9.87;7.03;;;;;;;7.37;100.00;93965.00;5077262;28;20286;-65
2022/11/22 09:32:54;;;;;;;11.07;7.10;;;;;;;7.50;100.00;93995.13;5066375;23;20764;-62
2022/11/22 09:35:19;;;;;;;11.33;7.00;;;;;;;7.43;100.00;93939.22;5077265;28;20647;-62
2022/11/22 09:37:45;;;;;;;9.03;6.90;;;;;;;7.42;100.00;93914.88;5077286;28;20199;-62
2022/11/22 09:40:12;;;;;;;10.43;7.23;;;;;;;7.44;100.00;93935.78;5076946;28;20220;-60
2022/11/22 09:42:41;;;;;;;7.67;6.23;;;;;;;7.51;100.00;93933.53;5077119;28;20192;-59
2022/11/22 09:45:24;;;;;;;10.23;7.10;;;;;;;7.73;100.00;94010.94;5077062;28;20258;-65
2022/11/22 09:48:21;;;;;;;12.23;7.30;;;;;;;7.59;100.00;93948.84;5077229;28;20184;-62
2022/11/22 09:51:01;;;;;;;9.67;6.10;;;;;;;7.48;100.00;93943.88;5077224;28;20219;-66
2022/11/22 09:53:40;;;;;;;7.77;5.50;;;;;;;7.60;100.00;93932.75;5077310;28;20188;-60
2022/11/22 09:56:12;;;;;;;13.13;6.80;;;;;;;7.78;100.00;93956.47;5077304;28;20326;-65
2022/11/22 09:58:45;;;;;;;8.57;6.00;;;;;;;7.96;100.00;93959.97;5058832;28;20211;-60
2022/11/22 10:01:10;;;;;;;8.87;6.03;;;;;;;7.83;100.00;93953.56;5077110;28;20569;-62
2022/11/22 10:03:44;;;;;;;10.53;6.20;;;;;;;7.84;100.00;93950.13;5076897;28;20193;-65
2022/11/22 10:06:31;;;;;;;11.67;6.13;;;;;;;7.98;100.00;93947.97;5076816;28;20200;-64
2022/11/22 10:09:08;;;;;;;8.37;5.87;;;;;;;8.03;100.00;93945.88;5084566;22;20193;-64
2022/11/22 10:11:45;;;;;;;8.23;6.10;;;;;;;7.97;100.00;93960.78;5056347;28;20193;-59
2022/11/22 10:14:21;;;;;;;7.60;6.03;;;;;;;8.03;100.00;93998.22;5056492;28;20244;-61
2022/11/22 10:16:58;;;;;;;10.77;5.47;;;;;;;8.16;100.00;93941.31;5056704;28;20200;-60
2022/11/22 10:19:34;;;;;;;10.93;6.33;;;;;;;7.90;100.00;93940.25;5056489;28;20220;-60
2022/11/22 10:21:59;;;;;;;6.30;5.47;;;;;;;8.06;100.00;93950.66;5056416;28;20200;-60
2022/11/22 10:24:25;;;;;;;7.10;5.10;;;;;;;7.92;100.00;93913.09;5054049;28;20213;-60
2022/11/22 10:26:52;;;;;;;9.30;5.97;;;;;;;7.95;100.00;93914.56;5053256;28;20197;-62
2022/11/22 10:29:45;;;;;;;8.30;5.97;;;;;;;8.16;100.00;93884.88;5053142;28;20213;-60
2022/11/22 10:32:31;;;;;;;11.43;6.10;;;;;;;8.28;100.00;93878.75;5055564;23;20320;-61
2022/11/22 10:35:20;;;;;;;11.77;6.20;;;;;;;8.39;100.00;93906.44;5073034;28;20219;-61
2022/11/22 10:37:52;;;;;;;15.77;5.93;;;;;;;8.29;100.00;93900.59;5072863;28;20284;-60
2022/11/22 10:40:48;;;;;;;10.23;6.50;;;;;;;8.26;100.00;93906.72;5072975;28;20205;-61
2022/11/22 10:43:35;;;;;;;8.03;6.03;;;;;;;8.23;100.00;93893.50;5062148;28;20205;-61
2022/11/22 10:46:11;;;;;;;10.60;6.40;;;;;;;8.45;100.00;93900.84;5073042;28;20213;-60
2022/11/22 10:48:41;;;;;;;14.63;7.07;;;;;;;8.43;100.00;93887.50;5072989;28;20192;-60
2022/11/22 10:51:19;;;;;;;13.30;6.80;;;;;;;8.38;100.00;93892.97;5073041;28;20201;-60
2022/11/22 10:54:02;;;;;;;9.13;6.83;;;;;;;8.70;100.00;93923.06;5072718;28;20188;-59
2022/11/22 10:56:49;;;;;;;13.57;6.73;;;;;;;8.57;100.00;93889.63;5072955;28;20203;-60
2022/11/22 10:59:26;;;;;;;16.10;7.17;;;;;;;8.42;100.00;93896.06;5072634;28;20220;-60
2022/11/22 11:01:58;;;;;;;11.33;7.10;;;;;;;8.38;100.00;93862.59;5054627;28;20258;-59
2022/11/22 11:04:28;;;;;;;10.10;6.17;;;;;;;8.59;100.00;93897.88;5072618;28;20273;-59
2022/11/22 11:06:59;;;;;;;10.47;6.10;;;;;;;8.59;100.00;93900.41;5072867;28;20591;-60
2022/11/22 11:09:39;;;;;;;9.93;5.80;;;;;;;8.43;100.00;93897.63;5054480;28;20308;-59
2022/11/22 11:12:14;;;;;;;10.90;5.80;;;;;;;8.65;100.00;93922.66;5073017;28;20212;-63
2022/11/22 11:14:45;;;;;;;9.80;6.03;;;;;;;8.65;100.00;93930.25;5072422;28;20653;-60
2022/11/22 11:17:25;;;;;;;6.90;4.20;;;;;;;8.43;100.00;93918.72;5072738;28;20665;-66
2022/11/22 11:19:54;;;;;;;5.97;4.63;;;;;;;8.27;100.00;93945.50;5071594;22;20232;-60
2022/11/22 11:22:24;;;;;;;10.53;4.73;;;;;;;8.26;100.00;93914.31;5034337;28;20560;-59
2022/11/22 11:24:50;;;;;;;7.03;5.00;;;;;;;8.48;100.00;93888.69;5052496;28;20213;-60
2022/11/22 11:27:18;;;;;;;32.90;8.83;;;;;;;8.32;100.00;93907.94;5052212;28;20185;-62
2022/11/22 11:29:46;;;;;;;30.87;7.53;;;;;;;7.98;100.00;93877.13;5052270;28;20224;-59
2022/11/22 11:32:19;;;;;;;18.40;7.63;;;;;;;7.92;100.00;93874.34;5034337;28;20280;-60
2022/11/22 11:35:06;;;;;;;13.57;6.87;;;;;;;8.24;100.00;93867.28;5052196;28;20682;-62
2022/11/22 11:37:37;;;;;;;9.93;6.73;;;;;;;8.28;100.00;93874.47;5052387;28;20189;-63
2022/11/22 11:40:25;;;;;;;7.40;5.77;;;;;;;8.50;100.00;93870.06;5052341;28;20346;-65
2022/11/22 11:43:17;;;;;;;6.43;4.73;;;;;;;8.38;100.00;93855.00;5052006;28;20243;-64
2022/11/22 11:45:43;;;;;;;8.57;5.33;;;;;;;8.56;100.00;93867.78;5051896;28;20205;-60
2022/11/22 11:48:28;;;;;;;6.33;4.97;;;;;;;8.41;100.00;93876.72;5052168;28;20193;-62
2022/11/22 11:51:10;;;;;;;10.50;6.17;;;;;;;8.48;100.00;93885.38;5034345;28;20213;-62
2022/11/22 11:53:36;;;;;;;12.33;5.23;;;;;;;8.50;100.00;93827.78;5051947;28;20267;-65